createdAt,value
2023-02-23T00:00:50.393Z,5.54
2023-02-23T00:03:55.128Z,5.49
2023-02-23T00:06:56.704Z,5.45
2023-02-23T00:09:58.299Z,5.39
2023-02-23T00:13:00.975Z,5.33
2023-02-23T00:16:08.833Z,5.29
2023-02-23T00:19:10.629Z,5.24
2023-02-23T00:22:12.785Z,5.23
2023-02-23T00:25:15.233Z,5.21
2023-02-23T00:28:16.790Z,5.17
2023-02-23T00:31:18.840Z,5.14
2023-02-23T00:34:21.709Z,5.14
2023-02-23T00:37:23.291Z,5.11
2023-02-23T00:40:25.243Z,5.10
2023-02-23T00:43:28.223Z,5.08
2023-02-23T00:46:30.720Z,5.05
2023-02-23T00:49:32.795Z,5.02
2023-02-23T00:52:34.371Z,5.00
2023-02-23T00:55:35.918Z,4.98
2023-02-23T00:58:37.839Z,4.96
2023-02-23T01:01:41.974Z,4.95
2023-02-23T01:04:43.651Z,4.93
2023-02-23T01:07:46.496Z,4.93
2023-02-23T01:10:53.106Z,4.94
2023-02-23T01:13:57.027Z,4.92
2023-02-23T01:16:59.046Z,4.90
2023-02-23T01:20:00.588Z,4.90
2023-02-23T01:23:03.599Z,4.89
2023-02-23T01:26:05.188Z,4.87
2023-02-23T01:29:15.267Z,4.87
2023-02-23T01:32:16.953Z,4.83
2023-02-23T01:35:18.722Z,4.83
2023-02-23T01:38:20.265Z,4.81
2023-02-23T01:41:22.312Z,4.81
2023-02-23T01:44:26.615Z,4.82
2023-02-23T01:47:28.172Z,4.82
2023-02-23T01:50:50.761Z,4.85
2023-02-23T01:53:57.576Z,4.86
2023-02-23T01:57:02.669Z,4.86
2023-02-23T02:00:12.960Z,4.88
2023-02-23T02:03:23.899Z,4.88
2023-02-23T02:06:30.057Z,4.91
2023-02-23T02:09:37.869Z,4.93
2023-02-23T02:12:41.548Z,4.95
2023-02-23T02:16:05.985Z,4.97
2023-02-23T02:19:33.720Z,4.98
2023-02-23T02:22:41.730Z,5.02
2023-02-23T02:25:55.179Z,5.04
2023-02-23T02:29:21.390Z,5.05
2023-02-23T02:32:40.518Z,5.09
2023-02-23T02:36:28.138Z,5.12
2023-02-23T02:39:36.660Z,5.15
2023-02-23T02:42:45.199Z,5.19
2023-02-23T02:46:02.122Z,5.21
2023-02-23T02:49:12.199Z,5.24
2023-02-23T02:52:28.883Z,5.26
2023-02-23T02:55:37.129Z,5.28
2023-02-23T02:58:39.289Z,5.30
2023-02-23T03:01:59.567Z,5.33
2023-02-23T03:05:19.934Z,5.34
2023-02-23T03:09:01.577Z,5.36
2023-02-23T03:12:35.080Z,5.38
2023-02-23T03:16:18.494Z,5.39
2023-02-23T03:19:47.738Z,5.42
2023-02-23T03:23:29.548Z,5.44
2023-02-23T03:27:23.431Z,5.45
2023-02-23T03:31:00.456Z,5.47
2023-02-23T03:34:37.265Z,5.47
2023-02-23T03:38:04.264Z,5.50
2023-02-23T03:41:27.199Z,5.51
2023-02-23T03:44:54.899Z,5.52
2023-02-23T03:48:18.614Z,5.53
2023-02-23T03:51:42.124Z,5.54
2023-02-23T03:55:12.601Z,5.55
2023-02-23T03:58:36.507Z,5.56
2023-02-23T04:01:57.902Z,5.56
2023-02-23T04:05:21.044Z,5.56
2023-02-23T04:08:46.426Z,5.58
2023-02-23T04:12:15.192Z,5.57
2023-02-23T04:15:32.363Z,5.58
2023-02-23T04:18:36.694Z,5.59
2023-02-23T04:21:38.714Z,5.60
2023-02-23T04:24:40.523Z,5.61
2023-02-23T04:27:42.079Z,5.61
2023-02-23T04:30:43.975Z,5.62
2023-02-23T04:33:45.548Z,5.62
2023-02-23T04:36:47.182Z,5.64
2023-02-23T04:39:50.214Z,5.64
2023-02-23T04:42:52.427Z,5.65
2023-02-23T04:45:54.198Z,5.65
2023-02-23T04:48:55.907Z,5.66
2023-02-23T04:51:57.499Z,5.67
2023-02-23T04:54:59.074Z,5.68
2023-02-23T04:58:02.098Z,5.69
2023-02-23T05:01:06.477Z,5.70
2023-02-23T05:04:08.017Z,5.70
2023-02-23T05:07:09.551Z,5.71
2023-02-23T05:10:11.660Z,5.70
2023-02-23T05:13:13.183Z,5.70
2023-02-23T05:16:14.763Z,5.71
2023-02-23T05:19:16.455Z,5.71
2023-02-23T05:22:18.054Z,5.71
2023-02-23T05:25:19.608Z,5.71
2023-02-23T05:28:21.873Z,5.71
2023-02-23T05:31:24.959Z,5.89
2023-02-23T05:34:27.212Z,6.21
2023-02-23T05:37:28.830Z,6.46
2023-02-23T05:40:30.812Z,6.50
2023-02-23T05:43:32.378Z,6.47
2023-02-23T05:46:34.005Z,6.41
2023-02-23T05:49:35.581Z,6.36
2023-02-23T05:52:41.540Z,6.30
2023-02-23T05:55:43.147Z,6.22
2023-02-23T05:58:44.677Z,6.16
2023-02-23T06:01:46.463Z,6.10
2023-02-23T06:04:48.032Z,6.06
2023-02-23T06:07:49.584Z,6.01
2023-02-23T06:10:51.425Z,5.97
2023-02-23T06:13:53.024Z,5.94
2023-02-23T06:16:55.342Z,5.92
2023-02-23T06:19:57.074Z,5.89
2023-02-23T06:22:58.623Z,5.88
2023-02-23T06:26:00.250Z,5.87
2023-02-23T06:29:02.081Z,5.87
2023-02-23T06:32:04.606Z,5.85
2023-02-23T06:35:07.345Z,5.82
2023-02-23T06:38:09.322Z,5.80
2023-02-23T06:41:11.659Z,5.80
2023-02-23T06:44:13.211Z,5.78
2023-02-23T06:47:14.764Z,5.78
2023-02-23T06:50:16.678Z,5.76
2023-02-23T06:53:18.455Z,5.75
2023-02-23T06:56:20.052Z,5.73
2023-02-23T06:59:21.682Z,5.72
2023-02-23T07:02:23.258Z,5.71
2023-02-23T07:05:24.778Z,5.68
2023-02-23T07:08:26.637Z,5.67
2023-02-23T07:11:28.178Z,5.66
2023-02-23T07:14:29.779Z,5.64
2023-02-23T07:17:31.708Z,5.62
2023-02-23T07:20:33.675Z,5.61
2023-02-23T07:23:35.315Z,5.61
2023-02-23T07:26:36.865Z,5.59
2023-02-23T07:29:38.386Z,5.59
2023-02-23T07:32:40.273Z,5.60
2023-02-23T07:35:43.107Z,5.60
2023-02-23T07:38:44.679Z,5.60
2023-02-23T07:41:46.259Z,5.59
2023-02-23T07:44:47.916Z,5.58
2023-02-23T07:47:49.466Z,5.58
2023-02-23T07:50:51.048Z,5.59
2023-02-23T07:53:52.629Z,5.59
2023-02-23T07:56:54.193Z,5.59
2023-02-23T07:59:55.770Z,5.60
2023-02-23T08:02:57.319Z,5.59
2023-02-23T08:05:58.871Z,5.59
2023-02-23T08:09:01.278Z,5.60
2023-02-23T08:12:03.365Z,5.60
2023-02-23T08:15:08.248Z,5.60
2023-02-23T08:18:10.441Z,5.61
2023-02-23T08:21:12.073Z,5.61
2023-02-23T08:24:14.107Z,5.61
2023-02-23T08:27:15.736Z,5.62
2023-02-23T08:30:19.200Z,5.87
2023-02-23T08:33:21.132Z,6.00
2023-02-23T08:36:22.780Z,6.02
2023-02-23T08:39:24.304Z,6.01
2023-02-23T08:42:25.908Z,6.01
2023-02-23T08:45:29.359Z,5.98
2023-02-23T08:48:30.922Z,5.97
2023-02-23T08:51:35.130Z,5.95
2023-02-23T08:54:36.694Z,5.93
2023-02-23T08:57:38.237Z,5.93
2023-02-23T09:00:39.842Z,5.93
2023-02-23T09:03:41.485Z,5.92
2023-02-23T09:06:43.051Z,5.91
2023-02-23T09:09:44.688Z,5.88
2023-02-23T09:12:46.270Z,5.86
2023-02-23T09:15:48.136Z,5.86
2023-02-23T09:18:49.839Z,5.84
2023-02-23T09:21:51.545Z,5.83
2023-02-23T09:24:53.554Z,5.83
2023-02-23T09:27:59.866Z,5.83
2023-02-23T09:31:10.286Z,5.83
2023-02-23T09:34:12.735Z,5.82
2023-02-23T09:37:14.613Z,5.82
2023-02-23T09:40:25.079Z,5.81
2023-02-23T09:43:45.149Z,5.79
2023-02-23T09:46:52.597Z,5.76
2023-02-23T09:49:56.354Z,5.75
2023-02-23T09:53:39.412Z,5.74
2023-02-23T09:56:49.818Z,5.72
2023-02-23T09:59:51.678Z,5.72
2023-02-23T10:03:24.193Z,5.73
2023-02-23T10:06:26.833Z,5.73
2023-02-23T10:09:44.475Z,5.74
2023-02-23T10:13:10.624Z,5.74
2023-02-23T10:16:24.435Z,5.74
2023-02-23T10:19:42.951Z,5.73
2023-02-23T10:22:48.177Z,5.71
2023-02-23T10:25:53.459Z,5.72
2023-02-23T10:28:58.683Z,5.73
2023-02-23T10:32:05.275Z,5.73
2023-02-23T10:35:19.324Z,5.72
2023-02-23T10:38:21.145Z,6.06
2023-02-23T10:41:23.438Z,6.65
2023-02-23T10:44:27.499Z,6.89
2023-02-23T10:47:36.262Z,6.90
2023-02-23T10:50:39.325Z,6.86
2023-02-23T10:53:40.882Z,6.80
2023-02-23T10:56:47.009Z,6.76
2023-02-23T11:00:18.254Z,6.73
2023-02-23T11:03:27.689Z,6.69
2023-02-23T11:06:36.168Z,6.68
2023-02-23T11:09:46.614Z,6.65
2023-02-23T11:12:49.806Z,6.62
2023-02-23T11:16:10.438Z,6.60
2023-02-23T11:19:24.336Z,6.56
2023-02-23T11:22:27.133Z,6.55
2023-02-23T11:25:31.881Z,6.53
2023-02-23T11:28:41.132Z,6.51
2023-02-23T11:31:49.689Z,6.48
2023-02-23T11:35:13.234Z,6.45
2023-02-23T11:38:27.548Z,6.41
2023-02-23T11:41:31.785Z,6.37
2023-02-23T11:44:33.696Z,6.32
2023-02-23T11:47:40.499Z,6.30
2023-02-23T11:50:47.434Z,6.29
2023-02-23T11:53:49.004Z,6.29
2023-02-23T11:56:55.418Z,6.27
2023-02-23T11:59:59.453Z,6.25
2023-02-23T12:03:03.339Z,6.25
2023-02-23T12:06:05.257Z,6.27
2023-02-23T12:09:19.509Z,6.31
2023-02-23T12:12:25.464Z,6.35
2023-02-23T12:15:40.122Z,6.39
2023-02-23T12:19:00.278Z,6.41
2023-02-23T12:22:12.318Z,6.45
2023-02-23T12:25:27.054Z,6.49
2023-02-23T12:28:45.981Z,6.51
2023-02-23T12:32:03.073Z,6.54
2023-02-23T12:35:15.119Z,6.57
2023-02-23T12:38:35.381Z,6.59
2023-02-23T12:41:43.251Z,6.58
2023-02-23T12:44:51.739Z,6.60
2023-02-23T12:48:00.983Z,6.57
2023-02-23T12:51:12.559Z,6.58
2023-02-23T12:54:16.567Z,6.58
2023-02-23T12:57:24.626Z,6.62
2023-02-23T13:00:45.523Z,6.94
2023-02-23T13:04:15.647Z,7.35
2023-02-23T13:07:35.565Z,7.77
2023-02-23T13:11:02.685Z,8.13
2023-02-23T13:14:29.796Z,8.45
2023-02-23T13:17:56.262Z,8.42
2023-02-23T13:21:10.181Z,8.58
2023-02-23T13:24:16.480Z,8.50
2023-02-23T13:27:43.200Z,8.34
2023-02-23T13:30:47.586Z,8.20
2023-02-23T13:33:49.739Z,8.06
2023-02-23T13:36:52.310Z,7.95
2023-02-23T13:40:12.672Z,7.90
2023-02-23T13:43:23.433Z,7.85
2023-02-23T13:46:45.836Z,7.80
2023-02-23T13:50:10.203Z,7.74
2023-02-23T13:53:47.024Z,7.67
2023-02-23T13:56:53.166Z,7.63
2023-02-23T13:59:55.142Z,7.57
2023-02-23T14:02:56.965Z,7.52
2023-02-23T14:06:00.949Z,7.49
2023-02-23T14:09:13.387Z,7.42
2023-02-23T14:12:19.444Z,7.36
2023-02-23T14:15:25.050Z,7.29
2023-02-23T14:18:32.230Z,7.23
2023-02-23T14:21:42.859Z,7.18
2023-02-23T14:24:44.443Z,7.13
2023-02-23T14:27:46.019Z,7.08
2023-02-23T14:30:58.799Z,7.19
2023-02-23T14:34:00.889Z,7.18
2023-02-23T14:37:34.801Z,7.12
2023-02-23T14:40:42.593Z,7.15
2023-02-23T14:43:45.629Z,7.45
2023-02-23T14:46:57.089Z,7.49
2023-02-23T14:50:01.503Z,7.42
2023-02-23T14:53:06.425Z,7.35
2023-02-23T14:56:18.862Z,7.25
2023-02-23T14:59:27.029Z,7.43
2023-02-23T15:02:30.434Z,7.59
2023-02-23T15:05:36.902Z,7.49
2023-02-23T15:08:44.990Z,7.29
2023-02-23T15:11:49.974Z,7.15
2023-02-23T15:14:51.536Z,7.11
2023-02-23T15:17:56.073Z,7.00
2023-02-23T15:20:57.729Z,6.84
2023-02-23T15:24:10.758Z,6.71
2023-02-23T15:27:22.875Z,6.59
2023-02-23T15:30:27.735Z,6.42
2023-02-23T15:33:30.319Z,6.26
2023-02-23T15:36:35.032Z,6.11
2023-02-23T15:39:43.065Z,6.02
2023-02-23T15:42:47.751Z,5.89
2023-02-23T15:45:54.655Z,5.74
2023-02-23T15:49:03.310Z,5.66
2023-02-23T15:52:38.717Z,5.56
2023-02-23T15:55:43.698Z,5.52
2023-02-23T15:58:56.375Z,5.43
2023-02-23T16:02:00.259Z,5.36
2023-02-23T16:05:15.052Z,5.27
2023-02-23T16:08:24.367Z,5.19
2023-02-23T16:11:30.847Z,5.10
2023-02-23T16:14:48.696Z,5.02
2023-02-23T16:18:07.152Z,4.95
2023-02-23T16:21:17.225Z,4.92
2023-02-23T16:24:22.854Z,4.86
2023-02-23T16:27:26.217Z,4.83
2023-02-23T16:31:00.459Z,4.78
2023-02-23T16:34:03.432Z,4.73
2023-02-23T16:37:18.077Z,4.70
2023-02-23T16:40:19.689Z,4.64
2023-02-23T16:43:21.600Z,4.77
2023-02-23T16:46:28.711Z,4.72
2023-02-23T16:49:31.351Z,4.69
2023-02-23T16:52:33.054Z,4.63
2023-02-23T16:55:39.352Z,4.61
2023-02-23T16:58:47.426Z,4.55
2023-02-23T17:01:50.022Z,4.56
2023-02-23T17:04:51.817Z,4.66
2023-02-23T17:07:53.856Z,4.62
2023-02-23T17:10:57.346Z,4.55
2023-02-23T17:13:58.934Z,4.49
2023-02-23T17:17:00.564Z,4.44
2023-02-23T17:20:02.149Z,4.39
2023-02-23T17:23:04.090Z,4.35
2023-02-23T17:26:07.338Z,4.28
2023-02-23T17:29:09.034Z,4.24
2023-02-23T17:32:10.818Z,4.20
2023-02-23T17:35:12.722Z,4.18
2023-02-23T17:38:15.010Z,4.17
2023-02-23T17:41:18.880Z,4.16
2023-02-23T17:44:20.605Z,4.13
2023-02-23T17:47:22.163Z,4.13
2023-02-23T17:50:26.405Z,4.10
2023-02-23T17:53:29.637Z,4.10
2023-02-23T17:56:31.727Z,4.10
2023-02-23T17:59:33.337Z,4.09
2023-02-23T18:02:34.904Z,4.09
2023-02-23T18:05:36.709Z,4.09
2023-02-23T18:08:40.426Z,4.10
2023-02-23T18:11:42.020Z,4.11
2023-02-23T18:14:43.729Z,4.10
2023-02-23T18:17:45.265Z,4.09
2023-02-23T18:20:55.037Z,4.08
2023-02-23T18:23:56.602Z,4.07
2023-02-23T18:27:01.794Z,4.05
2023-02-23T18:30:04.090Z,4.03
2023-02-23T18:33:06.793Z,4.01
2023-02-23T18:36:21.249Z,3.99
2023-02-23T18:39:22.982Z,4.00
2023-02-23T18:42:24.982Z,3.99
2023-02-23T18:45:27.569Z,3.96
2023-02-23T18:48:29.141Z,3.93
2023-02-23T18:51:30.697Z,3.90
2023-02-23T18:54:32.264Z,3.87
2023-02-23T18:57:33.807Z,3.83
2023-02-23T19:00:40.131Z,3.81
2023-02-23T19:03:45.056Z,3.78
2023-02-23T19:06:47.313Z,3.76
2023-02-23T19:09:48.845Z,3.74
2023-02-23T19:12:50.463Z,3.73
2023-02-23T19:15:53.506Z,3.73
2023-02-23T19:18:55.200Z,3.73
2023-02-23T19:21:58.741Z,3.73
2023-02-23T19:25:00.254Z,3.72
2023-02-23T19:28:02.593Z,3.71
2023-02-23T19:31:06.633Z,3.68
2023-02-23T19:34:08.986Z,3.65
2023-02-23T19:37:10.849Z,3.60
2023-02-23T19:40:14.049Z,3.56
2023-02-23T19:43:15.670Z,3.52
2023-02-23T19:46:17.560Z,3.47
2023-02-23T19:49:19.106Z,3.45
2023-02-23T19:52:20.716Z,3.40
2023-02-23T19:55:22.459Z,3.37
2023-02-23T19:58:27.171Z,3.33
2023-02-23T20:01:29.959Z,3.27
2023-02-23T20:04:31.550Z,3.22
2023-02-23T20:07:33.065Z,3.16
2023-02-23T20:10:34.791Z,3.10
2023-02-23T20:13:39.006Z,3.06
2023-02-23T20:16:41.201Z,3.04
2023-02-23T20:19:42.776Z,3.01
2023-02-23T20:22:45.063Z,2.96
2023-02-23T20:25:48.330Z,2.91
2023-02-23T20:28:51.740Z,2.89
2023-02-23T20:31:53.518Z,2.86
2023-02-23T20:34:55.151Z,2.86
2023-02-23T20:37:56.680Z,2.84
2023-02-23T20:40:58.792Z,2.84
2023-02-23T20:44:01.405Z,2.85
2023-02-23T20:47:03.186Z,2.83
2023-02-23T20:50:06.327Z,2.82
2023-02-23T20:53:08.722Z,2.82
2023-02-23T20:56:10.322Z,2.82
2023-02-23T20:59:12.832Z,2.83
2023-02-23T21:02:15.338Z,2.80
2023-02-23T21:05:17.167Z,2.79
2023-02-23T21:08:19.710Z,2.75
2023-02-23T21:11:25.116Z,2.70
2023-02-23T21:14:26.874Z,2.65
2023-02-23T21:17:28.467Z,2.59
2023-02-23T21:20:30.259Z,2.54
2023-02-23T21:23:31.893Z,2.51
2023-02-23T21:26:33.639Z,2.46
2023-02-23T21:29:35.170Z,2.42
2023-02-23T21:32:41.386Z,2.38
2023-02-23T21:35:43.255Z,2.35
2023-02-23T21:38:45.402Z,2.33
2023-02-23T21:41:46.976Z,2.31
2023-02-23T21:44:48.587Z,2.30
2023-02-23T21:47:50.457Z,2.31
2023-02-23T21:50:52.182Z,2.30
2023-02-23T21:53:58.013Z,2.29
2023-02-23T21:56:59.547Z,2.30
2023-02-23T22:00:01.138Z,2.30
2023-02-23T22:03:03.422Z,2.31
2023-02-23T22:06:05.275Z,2.32
2023-02-23T22:09:10.929Z,2.34
2023-02-23T22:12:12.571Z,2.34
2023-02-23T22:15:15.925Z,2.33
2023-02-23T22:18:17.830Z,2.33
2023-02-23T22:21:19.951Z,2.33
2023-02-23T22:24:21.726Z,2.34
2023-02-23T22:27:23.279Z,2.32
2023-02-23T22:30:25.922Z,2.31
2023-02-23T22:33:27.476Z,2.31
2023-02-23T22:36:29.442Z,2.30
2023-02-23T22:39:33.742Z,2.33
2023-02-23T22:42:35.414Z,2.30
2023-02-23T22:45:38.152Z,2.30
2023-02-23T22:48:44.842Z,2.31
2023-02-23T22:51:46.438Z,2.30
2023-02-23T22:54:48.086Z,2.43
2023-02-23T22:57:49.659Z,2.66
2023-02-23T23:01:03.590Z,2.71
2023-02-23T23:04:12.441Z,2.71
2023-02-23T23:07:14.088Z,2.71
2023-02-23T23:10:17.757Z,2.73
2023-02-23T23:13:19.529Z,2.73
2023-02-23T23:16:31.446Z,2.78
2023-02-23T23:19:39.271Z,2.77
2023-02-23T23:22:40.876Z,2.74
2023-02-23T23:25:46.502Z,2.71
2023-02-23T23:28:53.258Z,2.67
2023-02-23T23:31:57.227Z,2.63
2023-02-23T23:35:01.091Z,2.59
2023-02-23T23:38:03.119Z,2.54
2023-02-23T23:41:10.196Z,2.49
2023-02-23T23:44:13.280Z,2.48
2023-02-23T23:47:15.145Z,2.45
2023-02-23T23:50:17.409Z,2.42
2023-02-23T23:53:19.702Z,2.40
2023-02-23T23:56:21.671Z,2.37
2023-02-23T23:59:26.793Z,2.36
